Time;durP1;ratioP1;P1;durP2;ratioP2;P2;SDS_P1;SDS_P2;PMS_P1;PMS_P2;Temp;Humidity;BMP_temperature;BMP_pressure;BME280_temperature;BME280_humidity;BME280_pressure;Samples;Min_cycle;Max_cycle;Signal;HPM_P1;HPM_P2
2023/10/16 00:01:41;;;;;;;44.42;41.58;;;7.60;99.90;;;;;;6259279;22;20012;-89
2023/10/16 00:04:07;;;;;;;46.13;43.08;;;8.00;99.90;;;;;;6259348;22;20016;-89
2023/10/16 00:06:34;;;;;;;53.50;49.25;;;7.20;99.90;;;;;;6259550;22;20046;-89
2023/10/16 00:09:10;;;;;;;42.92;40.25;;;8.20;99.90;;;;;;6259369;22;20012;-89
2023/10/16 00:11:37;;;;;;;40.50;37.65;;;7.20;99.90;;;;;;6259665;22;20469;-88
2023/10/16 00:14:14;;;;;;;38.40;35.70;;;7.80;99.90;;;;;;6260366;22;20019;-89
2023/10/16 00:16:44;;;;;;;57.88;54.28;;;6.70;99.90;;;;;;6258043;22;20015;-88
2023/10/16 00:19:11;;;;;;;43.33;40.30;;;8.40;99.90;;;;;;6258310;22;20011;-89
2023/10/16 00:21:43;;;;;;;32.45;30.00;;;8.20;99.90;;;;;;6258088;22;20011;-89
2023/10/16 00:24:13;;;;;;;74.10;69.78;;;8.40;99.90;;;;;;6259831;22;20015;-88
2023/10/16 00:26:45;;;;;;;44.65;41.70;;;7.40;99.90;;;;;;6258633;22;20015;-89
2023/10/16 00:29:19;;;;;;;49.83;46.88;;;7.80;99.90;;;;;;6258871;22;20050;-88
2023/10/16 00:31:51;;;;;;;39.35;36.47;;;7.60;99.90;;;;;;6259042;22;20058;-89
2023/10/16 00:34:22;;;;;;;44.60;41.33;;;7.40;99.90;;;;;;6259244;22;20369;-89
2023/10/16 00:36:54;;;;;;;36.47;33.63;;;8.50;99.90;;;;;;6258348;22;20008;-90
2023/10/16 00:39:20;;;;;;;36.85;34.22;;;7.50;99.90;;;;;;6260285;22;20011;-89
2023/10/16 00:41:49;;;;;;;39.80;37.13;;;7.80;99.90;;;;;;6260322;22;20022;-89
2023/10/16 00:44:16;;;;;;;38.97;36.30;;;8.20;99.90;;;;;;6258314;22;20082;-89
2023/10/16 00:46:45;;;;;;;45.45;42.53;;;7.50;99.90;;;;;;6260146;22;20030;-89
2023/10/16 00:49:14;;;;;;;40.35;37.60;;;8.70;99.90;;;;;;6259549;22;20403;-89
2023/10/16 00:51:41;;;;;;;52.45;48.97;;;6.80;99.90;;;;;;6259680;22;20026;-89
2023/10/16 00:54:18;;;;;;;40.50;37.80;;;7.50;99.90;;;;;;6259884;22;20011;-87
2023/10/16 00:56:46;;;;;;;39.50;36.67;;;8.60;99.90;;;;;;6259167;22;20011;-89
2023/10/16 00:59:18;;;;;;;42.53;39.47;;;7.50;99.90;;;;;;6259898;22;20035;-88
2023/10/16 01:01:45;;;;;;;43.50;40.83;;;8.40;99.90;;;;;;6258525;22;20015;-88
2023/10/16 01:04:11;;;;;;;45.33;42.42;;;7.70;99.90;;;;;;6258803;22;20063;-89
2023/10/16 01:06:37;;;;;;;40.28;37.92;;;6.90;99.90;;;;;;6259153;22;20020;-88
2023/10/16 01:09:12;;;;;;;43.58;41.03;;;7.40;99.90;;;;;;6258960;22;20033;-88
2023/10/16 01:11:38;;;;;;;38.40;35.65;;;7.40;99.90;;;;;;6259635;22;20061;-88
2023/10/16 01:14:05;;;;;;;44.67;41.85;;;8.50;99.90;;;;;;6259450;22;20011;-90
2023/10/16 01:16:32;;;;;;;47.25;43.75;;;8.50;99.90;;;;;;6259385;22;20015;-89
2023/10/16 01:19:06;;;;;;;33.30;30.95;;;8.20;99.90;;;;;;6258056;22;20015;-89
2023/10/16 01:21:32;;;;;;;49.65;46.20;;;7.50;99.90;;;;;;6259378;22;20011;-89
2023/10/16 01:24:03;;;;;;;38.45;35.88;;;7.30;99.90;;;;;;6258570;22;20023;-89
2023/10/16 01:26:29;;;;;;;51.38;48.15;;;8.40;99.90;;;;;;6258704;22;20020;-89
2023/10/16 01:28:55;;;;;;;40.80;38.08;;;8.40;99.90;;;;;;6259829;22;20293;-88
2023/10/16 01:31:21;;;;;;;50.08;46.97;;;7.90;99.90;;;;;;6258456;22;20338;-89
2023/10/16 01:33:48;;;;;;;55.10;51.33;;;8.00;99.90;;;;;;6258547;22;20012;-89
2023/10/16 01:36:14;;;;;;;46.17;43.08;;;8.30;99.90;;;;;;6257982;22;20031;-89
2023/10/16 01:38:40;;;;;;;46.83;43.90;;;7.60;99.90;;;;;;6258609;22;20015;-88
2023/10/16 01:41:08;;;;;;;46.20;43.08;;;6.90;99.90;;;;;;6259246;22;20049;-88
2023/10/16 01:43:37;;;;;;;30.23;27.73;;;7.20;99.90;;;;;;6259283;22;20012;-89
2023/10/16 01:46:14;;;;;;;46.65;43.58;;;8.30;99.90;;;;;;6258915;22;20012;-90
2023/10/16 01:48:44;;;;;;;38.75;36.35;;;7.30;99.90;;;;;;6257932;22;20012;-88
2023/10/16 01:51:10;;;;;;;44.63;41.92;;;8.20;99.90;;;;;;6258501;22;20015;-89
2023/10/16 01:53:39;;;;;;;41.35;38.55;;;7.30;99.90;;;;;;6258559;22;20058;-88
2023/10/16 01:56:12;;;;;;;44.60;41.38;;;7.90;99.90;;;;;;6257476;22;20054;-89
2023/10/16 01:58:42;;;;;;;51.47;48.42;;;8.50;99.90;;;;;;6258252;22;20068;-88
2023/10/16 02:01:09;;;;;;;60.58;57.20;;;7.30;99.90;;;;;;6259963;22;20102;-89
2023/10/16 02:03:35;;;;;;;50.75;47.72;;;7.90;99.90;;;;;;6258325;22;20037;-89
2023/10/16 02:06:01;;;;;;;36.67;34.22;;;7.10;99.90;;;;;;6260475;22;20015;-88
2023/10/16 02:08:27;;;;;;;52.55;49.40;;;7.50;99.90;;;;;;6258686;22;20035;-89
2023/10/16 02:10:54;;;;;;;50.10;46.58;;;7.20;99.90;;;;;;6257916;22;20008;-89
2023/10/16 02:13:19;;;;;;;48.67;45.42;;;8.10;99.90;;;;;;6259297;22;20046;-89
2023/10/16 02:15:47;;;;;;;51.58;48.50;;;7.00;99.90;;;;;;6258068;22;20015;-89
2023/10/16 02:18:22;;;;;;;37.08;34.42;;;7.20;99.90;;;;;;6258151;22;20018;-89
2023/10/16 02:20:51;;;;;;;45.13;42.33;;;7.10;99.90;;;;;;6259399;22;20015;-87
2023/10/16 02:23:17;;;;;;;43.33;40.08;;;6.90;99.90;;;;;;6258342;22;20067;-89
2023/10/16 02:25:45;;;;;;;64.78;60.90;;;7.80;99.90;;;;;;6258034;22;20066;-88
2023/10/16 02:28:19;;;;;;;59.60;55.90;;;7.30;99.90;;;;;;6258374;22;20063;-88
2023/10/16 02:30:49;;;;;;;38.15;35.65;;;6.50;99.90;;;;;;6258792;22;20031;-89
2023/10/16 02:35:48;;;;;;;57.45;53.90;;;7.90;99.90;;;;;;6284490;22;20022;-88
2023/10/16 02:38:21;;;;;;;46.00;42.92;;;8.00;99.90;;;;;;6258216;22;20031;-89
2023/10/16 02:40:50;;;;;;;24.43;22.30;;;7.60;99.90;;;;;;6259138;22;20260;-89
2023/10/16 02:43:18;;;;;;;40.67;38.03;;;7.50;99.90;;;;;;6258283;22;20234;-90
2023/10/16 02:45:52;;;;;;;39.40;36.85;;;7.20;99.90;;;;;;6258678;22;20007;-89
2023/10/16 02:48:21;;;;;;;39.00;36.22;;;7.20;99.90;;;;;;6258443;22;20018;-89
2023/10/16 02:50:54;;;;;;;39.72;37.05;;;8.30;99.90;;;;;;6257497;22;20057;-89
2023/10/16 02:53:24;;;;;;;38.00;35.42;;;7.80;99.90;;;;;;6259593;22;20014;-89
2023/10/16 02:55:57;;;;;;;38.85;36.05;;;7.90;99.90;;;;;;6258561;22;20015;-89
2023/10/16 02:58:24;;;;;;;55.70;52.33;;;7.40;99.90;;;;;;6258337;22;20037;-89
2023/10/16 03:00:55;;;;;;;32.25;30.10;;;8.20;99.90;;;;;;6257900;22;20012;-89
2023/10/16 03:03:27;;;;;;;37.75;35.33;;;8.00;99.90;;;;;;6259378;22;20091;-89
2023/10/16 03:05:55;;;;;;;48.45;45.05;;;7.90;99.90;;;;;;6259037;22;20171;-89
2023/10/16 03:08:30;;;;;;;32.38;30.27;;;7.10;99.90;;;;;;6258525;22;20213;-89
2023/10/16 03:10:58;;;;;;;39.28;36.72;;;8.00;99.90;;;;;;6259162;22;20432;-90
2023/10/16 03:13:25;;;;;;;38.55;36.17;;;7.70;99.90;;;;;;6257462;22;20050;-89
2023/10/16 03:16:04;;;;;;;32.42;30.42;;;6.90;99.90;;;;;;6259549;22;20200;-87
2023/10/16 03:18:30;;;;;;;45.55;42.47;;;7.10;99.90;;;;;;6257882;22;20020;-89
2023/10/16 03:21:35;;;;;;;30.33;28.27;;;7.10;99.90;;;;;;6258916;22;20022;-87
2023/10/16 03:23:53;;;;;;;33.28;30.98;;;6.80;99.90;;;;;;6278352;22;20016;-89
2023/10/16 03:28:47;;;;;;;34.88;32.50;;;6.90;99.90;;;;;;6284058;22;20030;-88
2023/10/16 03:31:12;;;;;;;33.03;30.95;;;7.50;99.90;;;;;;6258381;22;20315;-89
2023/10/16 03:33:38;;;;;;;35.45;33.15;;;7.00;99.90;;;;;;6257939;22;20015;-90
2023/10/16 03:36:04;;;;;;;47.00;43.63;;;7.60;99.90;;;;;;6257741;22;20042;-89
2023/10/16 03:38:37;;;;;;;51.10;48.00;;;7.20;99.90;;;;;;6259801;22;20015;-88
2023/10/16 03:43:56;;;;;;;58.88;55.35;;;8.10;99.90;;;;;;6283998;22;20015;-89
2023/10/16 03:46:29;;;;;;;27.95;26.17;;;7.70;99.90;;;;;;6259336;22;20549;-90
2023/10/16 03:48:55;;;;;;;52.53;49.22;;;7.40;99.90;;;;;;6258669;22;20073;-89
2023/10/16 03:51:21;;;;;;;40.10;37.42;;;7.40;99.90;;;;;;6258451;22;20023;-90
2023/10/16 03:53:50;;;;;;;51.17;47.55;;;7.50;99.90;;;;;;6257823;22;20015;-89
2023/10/16 03:56:16;;;;;;;50.83;47.40;;;7.50;99.90;;;;;;6261587;22;20331;-90
2023/10/16 03:58:43;;;;;;;45.28;42.30;;;7.50;99.90;;;;;;6258758;22;20011;-89
2023/10/16 04:01:12;;;;;;;42.10;39.10;;;8.10;99.90;;;;;;6234308;22;20346;-90
2023/10/16 04:03:47;;;;;;;40.55;37.83;;;7.80;99.90;;;;;;6258880;22;20489;-89
2023/10/16 04:06:18;;;;;;;56.50;53.33;;;7.50;99.90;;;;;;6259327;22;20020;-89
2023/10/16 04:08:45;;;;;;;37.75;34.88;;;8.70;99.90;;;;;;6258616;22;20011;-91
2023/10/16 04:11:12;;;;;;;42.70;40.17;;;8.60;99.90;;;;;;6258593;22;20023;-89
2023/10/16 04:13:47;;;;;;;55.47;51.80;;;8.50;99.90;;;;;;6259133;22;20039;-90
2023/10/16 04:16:30;;;;;;;45.28;42.47;;;8.50;99.90;;;;;;6258408;22;20058;-90
2023/10/16 04:19:08;;;;;;;47.50;44.55;;;7.50;99.90;;;;;;6259513;22;20014;-90
2023/10/16 04:21:37;;;;;;;47.13;44.13;;;7.50;99.90;;;;;;6257725;22;20015;-90
2023/10/16 04:24:05;;;;;;;56.03;52.67;;;7.10;99.90;;;;;;6257925;22;20059;-90
2023/10/16 04:26:35;;;;;;;38.80;36.17;;;7.50;99.90;;;;;;6258437;22;20008;-89
2023/10/16 04:31:44;;;;;;;39.75;37.03;;;8.60;99.90;;;;;;6285002;22;20019;-89
2023/10/16 04:36:52;;;;;;;45.92;43.03;;;7.60;99.90;;;;;;6283408;22;20026;-89
2023/10/16 04:44:49;;;;;;;39.40;37.03;;;7.90;99.90;;;;;;6284415;22;20016;-89
2023/10/16 04:47:19;;;;;;;44.78;41.92;;;7.40;99.90;;;;;;6259913;22;20046;-89
2023/10/16 04:49:59;;;;;;;42.35;39.63;;;7.30;99.90;;;;;;6260592;22;20047;-89
2023/10/16 04:53:06;;;;;;;46.95;43.78;;;8.10;99.90;;;;;;6260780;22;20403;-89
2023/10/16 05:06:14;;;;;;;37.67;35.17;;;7.30;99.90;;;;;;6287437;22;20027;-90
2023/10/16 05:14:22;;;;;;;46.28;43.50;;;7.30;99.90;;;;;;6287255;22;20454;-87
2023/10/16 06:14:09;;;;;;;46.15;43.38;;;7.30;99.90;;;;;;6286711;22;20046;-87
2023/10/16 06:14:17;;;;;;;56.90;53.08;;;6.90;99.90;;;;;;6298350;22;20008;-90
2023/10/16 06:16:50;;;;;;;49.60;46.22;;;6.90;99.90;;;;;;6272994;22;20019;-86
2023/10/16 06:19:19;;;;;;;39.63;36.93;;;7.20;99.90;;;;;;6273150;22;20011;-88
2023/10/16 06:21:57;;;;;;;44.15;41.22;;;7.00;99.90;;;;;;6273242;22;20036;-88
2023/10/16 06:24:35;;;;;;;42.17;39.20;;;7.30;99.90;;;;;;6272914;22;20067;-88
2023/10/16 06:27:09;;;;;;;43.55;40.17;;;7.20;99.90;;;;;;6250082;22;20012;-88
2023/10/16 06:29:53;;;;;;;26.42;24.33;;;7.30;99.90;;;;;;6272974;22;20027;-89
2023/10/16 06:32:26;;;;;;;36.20;33.80;;;7.30;99.90;;;;;;6272378;22;20026;-88
2023/10/16 06:35:05;;;;;;;51.65;48.50;;;7.40;99.90;;;;;;6272813;22;20027;-87
2023/10/16 06:37:35;;;;;;;29.30;26.90;;;7.40;99.90;;;;;;6272948;22;20047;-89
2023/10/16 06:40:03;;;;;;;54.22;50.83;;;7.80;99.90;;;;;;6272698;22;20011;-89
2023/10/16 06:42:29;;;;;;;42.22;39.58;;;7.50;99.90;;;;;;6272442;22;20015;-88
2023/10/16 06:44:55;;;;;;;39.28;36.47;;;7.80;99.90;;;;;;6272440;22;20045;-89
2023/10/16 06:47:35;;;;;;;39.80;36.42;;;8.40;99.90;;;;;;6272940;22;20012;-89
2023/10/16 06:52:53;;;;;;;35.67;33.08;;;7.80;99.90;;;;;;6298467;22;20067;-89
2023/10/16 06:55:21;;;;;;;39.38;36.72;;;7.80;99.90;;;;;;6272623;22;20028;-89
2023/10/16 06:57:47;;;;;;;38.83;35.97;;;7.90;99.90;;;;;;6272834;22;20004;-89
2023/10/16 07:00:26;;;;;;;31.80;29.65;;;7.30;99.90;;;;;;6272453;22;20088;-90
2023/10/16 07:02:56;;;;;;;42.40;39.45;;;8.10;99.90;;;;;;6272708;22;20036;-89
2023/10/16 07:05:42;;;;;;;43.83;40.58;;;8.10;99.90;;;;;;6272603;22;20018;-89
2023/10/16 07:08:16;;;;;;;34.10;31.63;;;8.20;99.90;;;;;;6272482;22;20015;-89
2023/10/16 07:10:50;;;;;;;53.03;49.63;;;9.00;99.90;;;;;;6272285;22;20030;-88
2023/10/16 07:13:26;;;;;;;;;;;8.90;99.90;;;;;;6273238;22;20019;-89
2023/10/16 07:15:56;;;;;;;31.63;29.52;;;8.30;99.90;;;;;;6272136;22;19955;-87
2023/10/16 07:18:26;;;;;;;47.13;43.83;;;8.30;99.90;;;;;;6272379;22;20063;-89
2023/10/16 07:21:17;;;;;;;47.42;44.30;;;8.40;99.90;;;;;;6272587;22;20015;-88
2023/10/16 07:23:44;;;;;;;36.95;34.53;;;8.20;99.90;;;;;;6272425;22;20023;-90
2023/10/16 07:26:10;;;;;;;49.30;46.33;;;8.70;99.90;;;;;;6272430;22;20016;-90
2023/10/16 07:28:39;;;;;;;41.22;38.38;;;9.00;99.90;;;;;;6272429;22;20454;-89
2023/10/16 07:31:05;;;;;;;52.47;49.17;;;9.30;99.90;;;;;;6247530;22;20083;-90
2023/10/16 07:33:32;;;;;;;42.90;40.17;;;8.40;99.90;;;;;;6272467;22;20007;-87
2023/10/16 07:36:01;;;;;;;39.47;36.83;;;9.10;99.90;;;;;;6272139;22;20008;-88
2023/10/16 07:38:28;;;;;;;54.03;50.88;;;8.60;99.90;;;;;;6272435;22;20063;-87
2023/10/16 07:40:57;;;;;;;58.33;54.60;;;9.60;99.90;;;;;;6272342;22;20345;-88
2023/10/16 07:43:32;;;;;;;49.47;46.38;;;8.80;99.90;;;;;;6272592;22;20090;-90
2023/10/16 07:48:44;;;;;;;57.20;53.65;;;9.00;99.90;;;;;;6297443;22;20043;-89
2023/10/16 07:51:19;;;;;;;54.70;51.42;;;9.10;99.90;;;;;;6272206;22;20391;-89
2023/10/16 07:53:48;;;;;;;47.95;44.75;;;9.10;99.90;;;;;;6272385;22;19999;-90
2023/10/16 07:58:56;;;;;;;49.88;46.80;;;9.20;99.90;;;;;;6298216;22;20024;-89
2023/10/16 08:06:55;;;;;;;42.25;39.25;;;9.90;99.90;;;;;;6299228;22;20070;-90
2023/10/16 08:11:57;;;;;;;40.58;38.00;;;9.90;99.90;;;;;;6298479;22;20033;-89
2023/10/16 08:14:32;;;;;;;44.78;41.97;;;9.80;99.90;;;;;;6247538;22;20054;-90
2023/10/16 08:17:04;;;;;;;50.90;47.92;;;9.80;99.90;;;;;;6273045;22;20442;-88
2023/10/16 08:19:36;;;;;;;49.15;45.88;;;9.60;99.90;;;;;;6272751;22;20016;-90
2023/10/16 08:22:07;;;;;;;53.35;49.63;;;9.90;99.90;;;;;;6274995;22;20058;-89
2023/10/16 08:24:34;;;;;;;44.30;41.28;;;10.00;99.90;;;;;;6274970;22;20061;-89
2023/10/16 08:30:17;;;;;;;52.25;49.08;;;10.70;99.90;;;;;;6212744;23;20032;-91
2023/10/16 08:35:19;;;;;;;39.33;36.92;;;10.20;99.90;;;;;;6212808;23;20044;-88
2023/10/16 08:37:58;;;;;;;47.20;44.10;;;10.10;99.90;;;;;;6187983;23;20035;-90
2023/10/16 08:40:34;;;;;;;26.42;24.55;;;10.30;99.90;;;;;;6188020;23;20017;-90
2023/10/16 08:43:01;;;;;;;37.45;34.97;;;11.10;99.90;;;;;;6188103;23;20064;-89
2023/10/16 08:45:33;;;;;;;33.17;30.85;;;10.50;99.90;;;;;;6188608;23;20016;-91
2023/10/16 08:48:05;;;;;;;35.28;32.50;;;11.30;99.90;;;;;;6188278;23;20020;-90
2023/10/16 08:50:42;;;;;;;15.63;13.90;;;10.70;99.90;;;;;;6187943;23;20021;-90
2023/10/16 08:53:30;;;;;;;29.48;27.48;;;10.80;99.90;;;;;;6189249;23;20020;-91
2023/10/16 08:56:07;;;;;;;22.20;20.38;;;10.90;99.90;;;;;;6187768;23;20012;-90
2023/10/16 08:58:46;;;;;;;25.52;23.02;;;10.90;99.90;;;;;;6188285;23;20020;-88
2023/10/16 09:01:16;;;;;;;41.65;38.83;;;10.90;99.90;;;;;;6188026;23;20017;-90
2023/10/16 09:03:59;;;;;;;29.48;27.13;;;11.40;99.90;;;;;;6213593;22;20076;-91
2023/10/16 09:06:25;;;;;;;38.92;36.17;;;10.90;99.90;;;;;;6274932;22;20027;-90
2023/10/16 09:08:54;;;;;;;27.73;25.58;;;10.60;99.90;;;;;;6275040;22;20040;-88
2023/10/16 09:11:20;;;;;;;24.30;22.30;;;10.90;99.90;;;;;;6274662;22;20015;-89
2023/10/16 09:13:52;;;;;;;38.45;36.08;;;10.90;99.90;;;;;;6274484;22;20016;-90
2023/10/16 09:16:23;;;;;;;29.30;26.95;;;11.40;99.90;;;;;;6274841;22;20023;-89
2023/10/16 09:18:53;;;;;;;23.65;21.85;;;10.80;99.90;;;;;;6275115;22;20067;-89
2023/10/16 09:21:27;;;;;;;33.80;31.27;;;11.10;99.90;;;;;;6274543;22;20038;-90
2023/10/16 09:23:59;;;;;;;26.77;24.55;;;11.00;99.90;;;;;;6274934;22;20087;-89
2023/10/16 09:26:32;;;;;;;17.33;15.63;;;11.20;99.90;;;;;;6274328;22;20020;-88
2023/10/16 09:29:04;;;;;;;29.97;27.73;;;11.40;99.90;;;;;;6274607;22;20059;-89
2023/10/16 09:31:31;;;;;;;20.63;18.83;;;11.40;99.90;;;;;;6274342;22;20253;-91
2023/10/16 09:33:57;;;;;;;20.90;19.23;;;11.50;99.90;;;;;;6274631;22;20075;-89
2023/10/16 09:36:29;;;;;;;16.48;14.85;;;11.60;99.90;;;;;;6275024;22;20361;-90
2023/10/16 09:38:59;;;;;;;16.30;12.65;;;12.20;99.90;;;;;;6274434;22;20015;-89
2023/10/16 09:44:07;;;;;;;18.20;16.48;;;12.00;99.90;;;;;;6300045;22;20011;-90
2023/10/16 09:49:11;;;;;;;14.73;12.25;;;11.60;99.90;;;;;;6277088;22;20019;-91
2023/10/16 09:51:39;;;;;;;19.58;15.50;;;11.60;99.90;;;;;;6273990;22;20049;-90
2023/10/16 09:54:07;;;;;;;17.88;16.15;;;12.40;99.90;;;;;;6274345;22;20075;-89
2023/10/16 09:56:38;;;;;;;18.08;13.43;;;11.70;99.90;;;;;;6273973;22;20091;-89
2023/10/16 09:59:26;;;;;;;16.20;13.85;;;11.70;99.90;;;;;;6274266;22;20079;-90
2023/10/16 10:01:55;;;;;;;24.80;22.92;;;11.70;99.90;;;;;;6274552;22;20019;-90
2023/10/16 10:04:24;;;;;;;13.18;12.07;;;11.70;99.90;;;;;;6274295;22;20012;-91
2023/10/16 10:06:57;;;;;;;16.33;14.70;;;11.30;99.90;;;;;;6274385;22;20028;-89
2023/10/16 10:09:41;;;;;;;28.25;25.90;;;11.80;99.90;;;;;;6249389;22;20026;-89
2023/10/16 10:12:47;;;;;;;22.17;20.67;;;11.80;99.90;;;;;;6274336;22;20019;-88
2023/10/16 10:15:26;;;;;;;24.65;22.73;;;11.90;99.90;;;;;;6275117;22;20046;-90
2023/10/16 10:17:55;;;;;;;24.15;21.73;;;11.90;99.90;;;;;;6274993;22;20023;-91
2023/10/16 10:20:39;;;;;;;28.30;26.08;;;12.00;99.90;;;;;;6274582;22;20070;-89
2023/10/16 10:23:08;;;;;;;38.53;35.72;;;11.90;99.90;;;;;;6274391;22;20164;-90
2023/10/16 10:25:37;;;;;;;31.15;28.65;;;11.90;99.90;;;;;;6274180;22;20019;-89
2023/10/16 10:28:25;;;;;;;18.48;16.50;;;11.90;99.90;;;;;;6248651;22;20020;-89
2023/10/16 10:30:55;;;;;;;29.98;27.50;;;11.90;99.90;;;;;;6274406;22;20070;-90
2023/10/16 10:33:51;;;;;;;26.63;24.58;;;11.90;99.90;;;;;;6274795;22;20022;-90
2023/10/16 10:36:43;;;;;;;17.48;15.90;;;11.70;99.90;;;;;;6274024;22;20042;-90
2023/10/16 10:39:21;;;;;;;21.75;19.80;;;12.10;99.90;;;;;;6273974;22;20054;-90
2023/10/16 10:42:03;;;;;;;22.55;20.73;;;12.00;99.90;;;;;;6274009;22;19995;-89
2023/10/16 10:44:39;;;;;;;18.77;17.05;;;12.00;99.90;;;;;;6273879;22;20020;-87
2023/10/16 10:47:32;;;;;;;25.60;23.73;;;12.00;99.90;;;;;;6249984;22;20073;-90
2023/10/16 10:50:00;;;;;;;19.60;18.02;;;12.00;99.90;;;;;;6274280;22;20016;-89
2023/10/16 10:52:32;;;;;;;18.85;17.45;;;12.00;99.90;;;;;;6274322;22;20049;-89
2023/10/16 10:54:59;;;;;;;22.00;20.33;;;12.10;99.90;;;;;;6274871;22;20012;-88
2023/10/16 10:57:26;;;;;;;19.75;18.20;;;12.10;99.90;;;;;;6248823;22;20011;-89
2023/10/16 10:59:58;;;;;;;31.05;28.83;;;12.60;99.90;;;;;;6274378;22;20026;-90
2023/10/16 11:04:53;;;;;;;23.00;21.25;;;12.10;99.90;;;;;;6299943;22;20004;-90
2023/10/16 11:07:59;;;;;;;21.75;20.15;;;12.70;99.90;;;;;;6273864;22;20063;-90
2023/10/16 11:10:25;;;;;;;31.67;29.58;;;12.40;99.90;;;;;;6274468;22;20023;-88
2023/10/16 11:12:50;;;;;;;41.15;38.60;;;12.60;99.90;;;;;;6274317;22;20011;-89
2023/10/16 11:15:17;;;;;;;22.83;21.02;;;12.50;99.90;;;;;;6274548;22;20000;-89
2023/10/16 11:17:44;;;;;;;41.08;38.30;;;12.70;99.90;;;;;;6274379;22;20015;-89
2023/10/16 11:22:46;;;;;;;15.75;14.20;;;12.80;99.90;;;;;;6300039;22;20266;-90
2023/10/16 11:25:15;;;;;;;19.50;17.92;;;12.70;99.90;;;;;;6274445;22;20023;-89
2023/10/16 11:27:42;;;;;;;17.10;15.57;;;12.70;99.90;;;;;;6274288;22;20078;-89
2023/10/16 11:30:18;;;;;;;39.83;37.53;;;13.10;99.90;;;;;;6273934;22;20027;-89
2023/10/16 11:32:47;;;;;;;31.40;29.48;;;13.30;99.90;;;;;;6274581;22;20016;-90
2023/10/16 11:35:14;;;;;;;28.85;26.65;;;12.80;99.90;;;;;;6274365;22;20072;-91
2023/10/16 11:37:43;;;;;;;19.08;17.67;;;12.60;99.90;;;;;;6273842;22;20003;-90
2023/10/16 11:40:19;;;;;;;20.40;18.85;;;12.80;99.90;;;;;;6273601;22;20023;-90
2023/10/16 11:42:47;;;;;;;14.40;13.18;;;12.80;99.90;;;;;;6249418;22;20023;-90
2023/10/16 11:45:19;;;;;;;25.48;23.67;;;12.80;99.90;;;;;;6273596;22;20012;-89
2023/10/16 11:50:40;;;;;;;19.30;17.88;;;12.90;99.90;;;;;;6298723;22;20054;-89
2023/10/16 11:53:07;;;;;;;21.52;19.95;;;13.00;99.90;;;;;;6247939;22;20015;-90
2023/10/16 11:55:42;;;;;;;20.70;19.35;;;13.00;99.90;;;;;;6272990;22;20019;-90
2023/10/16 11:58:08;;;;;;;11.25;9.90;;;13.00;99.90;;;;;;6249369;22;20015;-88
2023/10/16 12:00:36;;;;;;;26.10;24.05;;;13.00;99.90;;;;;;6273259;22;20006;-90
2023/10/16 12:03:07;;;;;;;15.82;14.45;;;13.10;99.90;;;;;;6273613;22;20040;-89
2023/10/16 12:05:36;;;;;;;19.55;18.02;;;13.10;99.90;;;;;;6273879;22;20022;-90
2023/10/16 12:08:07;;;;;;;19.55;17.98;;;13.00;99.90;;;;;;6273456;22;20020;-89
2023/10/16 12:10:33;;;;;;;16.75;15.57;;;13.10;99.90;;;;;;6273697;22;20012;-89
2023/10/16 12:13:02;;;;;;;27.42;25.70;;;13.00;99.90;;;;;;6273642;22;20016;-90
2023/10/16 12:15:32;;;;;;;18.90;17.33;;;13.00;99.90;;;;;;6299262;22;20059;-90
2023/10/16 12:18:00;;;;;;;20.45;18.67;;;13.00;99.90;;;;;;6273159;22;20011;-89
2023/10/16 12:20:27;;;;;;;13.52;12.30;;;13.00;99.90;;;;;;6273004;22;20012;-90
2023/10/16 12:22:58;;;;;;;40.05;36.78;;;12.80;99.90;;;;;;6272706;22;20014;-91
2023/10/16 12:25:27;;;;;;;21.13;19.58;;;13.10;99.90;;;;;;6272754;22;20011;-89
2023/10/16 12:27:54;;;;;;;20.73;19.35;;;13.30;99.90;;;;;;6247953;22;20020;-88
2023/10/16 12:30:19;;;;;;;26.05;23.60;;;13.20;99.90;;;;;;6272869;22;20015;-89
2023/10/16 12:32:45;;;;;;;24.05;22.15;;;13.30;99.90;;;;;;6273106;22;20110;-90
2023/10/16 12:35:22;;;;;;;18.65;16.85;;;13.40;99.90;;;;;;6273066;22;20012;-89
2023/10/16 12:37:49;;;;;;;19.67;18.00;;;13.30;99.90;;;;;;6249367;22;20007;-89
2023/10/16 12:40:24;;;;;;;15.90;13.65;;;13.60;99.90;;;;;;6272848;22;20011;-89
2023/10/16 12:42:59;;;;;;;23.00;21.10;;;13.80;99.90;;;;;;6273136;22;20026;-90
2023/10/16 12:45:25;;;;;;;25.60;23.58;;;13.30;99.90;;;;;;6272827;22;20061;-89
2023/10/16 12:47:53;;;;;;;20.98;19.38;;;13.20;99.90;;;;;;6272535;22;20016;-90
2023/10/16 12:50:23;;;;;;;22.33;20.63;;;13.20;99.90;;;;;;6272718;22;20000;-90
2023/10/16 12:53:00;;;;;;;21.10;19.45;;;13.10;99.90;;;;;;6248829;22;20015;-88
2023/10/16 12:55:26;;;;;;;22.48;20.48;;;13.10;99.90;;;;;;6273022;22;20038;-88
2023/10/16 12:57:53;;;;;;;19.73;17.98;;;13.40;99.90;;;;;;6272671;22;20039;-90
2023/10/16 13:00:21;;;;;;;26.38;24.38;;;13.00;99.90;;;;;;6273120;22;19991;-88
2023/10/16 13:02:51;;;;;;;20.70;18.70;;;12.80;99.90;;;;;;6273095;22;20016;-89
2023/10/16 13:05:30;;;;;;;25.45;23.65;;;12.80;99.90;;;;;;6273293;22;20037;-90
2023/10/16 13:08:02;;;;;;;20.45;19.05;;;12.80;99.90;;;;;;6274408;22;20012;-89
2023/10/16 13:10:28;;;;;;;20.40;18.80;;;13.10;99.90;;;;;;6249652;22;20075;-89
2023/10/16 13:12:58;;;;;;;23.00;21.27;;;12.50;99.90;;;;;;6274779;22;20020;-89
2023/10/16 13:15:25;;;;;;;26.50;24.20;;;12.90;99.90;;;;;;6250052;22;20016;-88
2023/10/16 13:17:52;;;;;;;22.23;20.58;;;12.90;99.90;;;;;;6249194;22;20046;-90
2023/10/16 13:20:18;;;;;;;25.80;24.08;;;13.00;99.90;;;;;;6274136;22;20023;-89
2023/10/16 13:22:52;;;;;;;21.30;19.58;;;13.10;99.90;;;;;;6274649;22;20007;-89
2023/10/16 13:25:25;;;;;;;24.00;21.98;;;13.50;99.90;;;;;;6274356;22;20048;-90
2023/10/16 13:27:52;;;;;;;24.08;21.77;;;13.50;99.90;;;;;;6274289;22;20012;-90
2023/10/16 13:30:18;;;;;;;23.67;22.02;;;13.10;99.90;;;;;;6274553;22;20039;-90
2023/10/16 13:32:48;;;;;;;21.35;19.80;;;13.30;99.90;;;;;;6274364;22;20015;-89
2023/10/16 13:35:18;;;;;;;24.67;22.58;;;13.30;99.90;;;;;;6274757;22;20026;-89
2023/10/16 13:37:50;;;;;;;20.75;18.90;;;13.40;99.90;;;;;;6274836;22;20142;-90
2023/10/16 13:40:21;;;;;;;23.23;21.45;;;13.40;99.90;;;;;;6274021;22;20051;-88
2023/10/16 13:42:49;;;;;;;21.40;19.67;;;13.20;99.90;;;;;;6299431;22;20011;-89
2023/10/16 13:45:16;;;;;;;21.48;19.55;;;13.30;99.90;;;;;;6274561;22;20012;-90
2023/10/16 13:47:45;;;;;;;21.25;19.48;;;13.00;99.90;;;;;;6249407;22;20020;-89
2023/10/16 13:50:13;;;;;;;28.73;26.48;;;13.20;99.90;;;;;;6274221;22;19995;-90
2023/10/16 13:52:44;;;;;;;28.10;26.15;;;13.80;99.90;;;;;;6273945;22;20022;-90
2023/10/16 13:55:14;;;;;;;21.77;20.13;;;13.60;99.90;;;;;;6274182;22;20045;-89
2023/10/16 13:57:47;;;;;;;22.17;20.58;;;13.10;99.90;;;;;;6274265;22;20042;-89
2023/10/16 14:00:28;;;;;;;;;;;13.60;99.90;;;;;;6250425;22;20016;-89
2023/10/16 14:03:17;;;;;;;24.27;22.23;;;13.00;99.90;;;;;;6274277;22;19947;-90
2023/10/16 14:05:47;;;;;;;32.17;29.95;;;12.80;99.90;;;;;;6274223;22;20111;-90
2023/10/16 14:08:18;;;;;;;24.33;22.48;;;13.50;99.90;;;;;;6274591;22;20012;-89
2023/10/16 14:10:52;;;;;;;26.13;23.98;;;13.40;99.90;;;;;;6274129;22;20020;-90
2023/10/16 14:13:40;;;;;;;23.27;21.55;;;12.60;99.90;;;;;;6250163;22;20016;-88
2023/10/16 14:16:17;;;;;;;26.40;24.20;;;12.90;99.90;;;;;;6273754;22;20067;-87
2023/10/16 14:18:44;;;;;;;29.10;27.27;;;12.90;99.90;;;;;;6273534;22;20063;-89
2023/10/16 14:21:13;;;;;;;21.58;19.98;;;12.90;99.90;;;;;;6274320;22;20191;-88
2023/10/16 14:23:40;;;;;;;22.95;21.33;;;13.00;99.90;;;;;;6274310;22;20012;-90
2023/10/16 14:26:11;;;;;;;20.27;18.67;;;13.00;99.90;;;;;;6273928;22;20011;-89
2023/10/16 14:28:41;;;;;;;29.15;26.92;;;12.90;99.90;;;;;;6274429;22;20048;-88
2023/10/16 14:31:11;;;;;;;25.02;23.13;;;12.90;99.90;;;;;;6273982;22;20012;-88
2023/10/16 14:33:37;;;;;;;20.58;19.08;;;13.20;99.90;;;;;;6274536;22;20003;-89
2023/10/16 14:36:09;;;;;;;29.30;26.98;;;12.90;99.90;;;;;;6273660;22;20015;-90
2023/10/16 14:38:38;;;;;;;26.70;24.90;;;12.90;99.90;;;;;;6273698;22;20023;-88
2023/10/16 14:41:09;;;;;;;15.90;14.27;;;12.80;99.90;;;;;;6248791;22;20002;-90
2023/10/16 14:43:38;;;;;;;20.75;19.27;;;12.70;99.90;;;;;;6274248;22;20011;-90
2023/10/16 14:46:07;;;;;;;30.23;28.08;;;12.60;99.90;;;;;;6273860;22;20066;-89
2023/10/16 14:48:33;;;;;;;22.88;21.17;;;12.60;99.90;;;;;;6274065;22;20046;-91
2023/10/16 14:51:06;;;;;;;45.22;41.10;;;12.60;99.90;;;;;;6273741;22;20046;-89
2023/10/16 14:53:31;;;;;;;27.10;24.70;;;12.50;99.90;;;;;;6248686;22;20022;-89
2023/10/16 14:55:57;;;;;;;32.78;30.38;;;12.50;99.90;;;;;;6273396;22;20015;-89
2023/10/16 14:58:23;;;;;;;28.55;26.40;;;12.50;99.90;;;;;;6274246;22;20022;-89